createdAt,value
2022-08-29T00:01:25.217Z,17.08
2022-08-29T00:03:55.566Z,17.06
2022-08-29T00:06:23.683Z,17.00
2022-08-29T00:08:51.495Z,16.99
2022-08-29T00:11:19.274Z,17.06
2022-08-29T00:13:47.247Z,16.97
2022-08-29T00:16:16.283Z,17.05
2022-08-29T00:18:44.093Z,17.01
2022-08-29T00:21:11.829Z,16.93
2022-08-29T00:23:40.440Z,16.97
2022-08-29T00:26:08.763Z,16.84
2022-08-29T00:28:36.543Z,16.93
2022-08-29T00:31:04.420Z,16.91
2022-08-29T00:33:33.516Z,16.85
2022-08-29T00:36:02.897Z,16.71
2022-08-29T00:38:32.001Z,16.73
2022-08-29T00:40:59.852Z,16.61
2022-08-29T00:43:29.804Z,16.76
2022-08-29T00:46:06.520Z,16.60
2022-08-29T00:48:38.204Z,16.54
2022-08-29T00:51:09.416Z,16.61
2022-08-29T00:53:40.886Z,16.57
2022-08-29T00:56:09.774Z,16.44
2022-08-29T00:58:42.179Z,16.50
2022-08-29T01:01:10.866Z,16.51
2022-08-29T01:03:42.736Z,16.40
2022-08-29T01:06:12.840Z,16.49
2022-08-29T01:08:40.858Z,16.47
2022-08-29T01:11:26.428Z,16.44
2022-08-29T01:13:54.982Z,16.33
2022-08-29T01:16:24.110Z,16.44
2022-08-29T01:18:56.733Z,16.26
2022-08-29T01:21:30.803Z,16.23
2022-08-29T01:24:02.603Z,16.24
2022-08-29T01:26:32.564Z,16.13
2022-08-29T01:29:00.388Z,16.18
2022-08-29T01:31:55.595Z,16.11
2022-08-29T01:34:19.378Z,16.15
2022-08-29T01:36:50.402Z,16.05
2022-08-29T01:39:18.745Z,16.02
2022-08-29T01:41:47.884Z,16.04
2022-08-29T01:44:19.512Z,15.98
2022-08-29T01:46:48.594Z,15.97
2022-08-29T01:49:18.084Z,16.05
2022-08-29T01:51:45.847Z,16.06
2022-08-29T01:54:14.368Z,16.04
2022-08-29T01:56:44.294Z,15.96
2022-08-29T01:59:16.475Z,15.95
2022-08-29T02:01:47.815Z,16.01
2022-08-29T02:04:15.678Z,15.89
2022-08-29T02:06:44.933Z,15.82
2022-08-29T02:09:13.007Z,15.88
2022-08-29T02:11:40.792Z,15.89
2022-08-29T02:14:16.189Z,15.82
2022-08-29T02:16:48.927Z,15.82
2022-08-29T02:19:17.568Z,15.86
2022-08-29T02:21:45.403Z,15.78
2022-08-29T02:24:28.391Z,15.85
2022-08-29T02:26:56.851Z,15.83
2022-08-29T02:29:25.326Z,15.79
2022-08-29T02:31:54.948Z,15.78
2022-08-29T02:34:23.198Z,15.78
2022-08-29T02:36:51.428Z,15.71
2022-08-29T02:39:19.369Z,15.75
2022-08-29T02:41:47.035Z,15.67
2022-08-29T02:44:15.089Z,15.58
2022-08-29T02:46:42.838Z,15.62
2022-08-29T02:49:11.849Z,15.52
2022-08-29T02:51:39.471Z,15.45
2022-08-29T02:54:07.242Z,15.46
2022-08-29T02:56:34.953Z,15.50
2022-08-29T02:59:02.702Z,15.59
2022-08-29T03:01:31.255Z,15.43
2022-08-29T03:03:59.287Z,15.48
2022-08-29T03:06:28.335Z,15.49
2022-08-29T03:08:56.374Z,15.50
2022-08-29T03:11:24.561Z,15.53
2022-08-29T03:13:52.355Z,15.50
2022-08-29T03:16:25.495Z,15.44
2022-08-29T03:18:53.287Z,15.35
2022-08-29T03:21:24.893Z,15.32
2022-08-29T03:23:55.256Z,15.29
2022-08-29T03:26:23.641Z,15.24
2022-08-29T03:28:51.311Z,15.17
2022-08-29T03:31:19.171Z,15.13
2022-08-29T03:33:46.846Z,15.11
2022-08-29T03:36:15.023Z,14.96
2022-08-29T03:38:43.347Z,14.99
2022-08-29T03:41:12.698Z,14.96
2022-08-29T03:43:40.342Z,14.94
2022-08-29T03:46:08.085Z,14.99
2022-08-29T03:48:35.918Z,15.11
2022-08-29T03:51:03.896Z,14.96
2022-08-29T03:53:33.059Z,14.82
2022-08-29T03:56:00.955Z,14.91
2022-08-29T03:58:29.997Z,14.92
2022-08-29T04:00:58.823Z,14.81
2022-08-29T04:03:31.514Z,14.82
2022-08-29T04:05:59.719Z,14.92
2022-08-29T04:08:27.448Z,14.78
2022-08-29T04:10:55.136Z,14.85
2022-08-29T04:13:22.866Z,14.75
2022-08-29T04:15:52.020Z,14.80
2022-08-29T04:18:21.553Z,14.81
2022-08-29T04:20:50.133Z,14.82
2022-08-29T04:23:17.888Z,14.77
2022-08-29T04:25:45.750Z,14.79
2022-08-29T04:28:15.068Z,14.77
2022-08-29T04:30:51.865Z,14.70
2022-08-29T04:33:26.458Z,14.68
2022-08-29T04:35:54.276Z,14.68
2022-08-29T04:38:21.975Z,14.67
2022-08-29T04:40:49.958Z,14.51
2022-08-29T04:43:17.745Z,14.60
2022-08-29T04:45:45.377Z,14.59
2022-08-29T04:48:13.067Z,14.68
2022-08-29T04:50:42.251Z,14.70
2022-08-29T04:53:09.922Z,14.84
2022-08-29T04:55:37.582Z,14.92
2022-08-29T04:58:06.363Z,14.81
2022-08-29T05:00:38.408Z,14.90
2022-08-29T05:03:07.662Z,14.88
2022-08-29T05:05:35.388Z,14.92
2022-08-29T05:08:05.044Z,15.00
2022-08-29T05:10:32.845Z,15.01
2022-08-29T05:13:00.589Z,15.00
2022-08-29T05:15:28.415Z,15.11
2022-08-29T05:17:56.648Z,15.22
2022-08-29T05:20:24.311Z,15.19
2022-08-29T05:22:52.122Z,15.17
2022-08-29T05:25:21.635Z,15.25
2022-08-29T05:27:49.508Z,15.30
2022-08-29T05:30:34.717Z,15.30
2022-08-29T05:33:03.031Z,15.38
2022-08-29T05:35:30.723Z,15.24
2022-08-29T05:37:58.526Z,15.34
2022-08-29T05:40:27.678Z,15.49
2022-08-29T05:42:55.472Z,15.57
2022-08-29T05:45:23.354Z,15.68
2022-08-29T05:47:51.022Z,15.81
2022-08-29T05:50:18.721Z,15.83
2022-08-29T05:52:46.729Z,15.93
2022-08-29T05:55:14.394Z,16.02
2022-08-29T05:57:43.401Z,16.06
2022-08-29T06:00:12.807Z,16.13
2022-08-29T06:02:40.953Z,16.23
2022-08-29T06:05:09.273Z,16.23
2022-08-29T06:07:38.519Z,16.27
2022-08-29T06:10:08.829Z,16.26
2022-08-29T06:12:37.263Z,16.48
2022-08-29T06:15:07.692Z,16.47
2022-08-29T06:17:37.587Z,16.50
2022-08-29T06:20:09.671Z,16.66
2022-08-29T06:22:40.388Z,16.79
2022-08-29T06:25:28.326Z,16.74
2022-08-29T06:27:57.511Z,16.87
2022-08-29T06:30:26.626Z,16.81
2022-08-29T06:32:54.679Z,16.89
2022-08-29T06:35:22.444Z,16.98
2022-08-29T06:37:50.254Z,16.81
2022-08-29T06:40:18.019Z,16.96
2022-08-29T06:42:45.949Z,17.08
2022-08-29T06:45:13.613Z,17.09
2022-08-29T06:47:43.321Z,17.08
2022-08-29T06:50:11.290Z,17.32
2022-08-29T06:52:39.068Z,17.47
2022-08-29T06:55:11.691Z,17.49
2022-08-29T06:57:42.924Z,17.49
2022-08-29T07:00:21.425Z,17.42
2022-08-29T07:02:52.838Z,17.61
2022-08-29T07:05:21.647Z,17.91
2022-08-29T07:07:52.456Z,17.56
2022-08-29T07:10:22.792Z,17.89
2022-08-29T07:12:51.179Z,18.10
2022-08-29T07:15:19.421Z,18.18
2022-08-29T07:17:47.338Z,17.97
2022-08-29T07:20:17.104Z,18.10
2022-08-29T07:22:45.396Z,18.31
2022-08-29T07:25:13.065Z,18.52
2022-08-29T07:27:40.664Z,18.62
2022-08-29T07:30:09.418Z,18.68
2022-08-29T07:32:37.361Z,18.78
2022-08-29T07:35:05.452Z,18.67
2022-08-29T07:37:34.695Z,18.50
2022-08-29T07:40:02.816Z,18.65
2022-08-29T07:42:30.602Z,18.52
2022-08-29T07:44:59.626Z,18.86
2022-08-29T07:47:28.818Z,18.94
2022-08-29T07:49:56.733Z,19.06
2022-08-29T07:52:24.573Z,18.91
2022-08-29T07:54:53.553Z,19.17
2022-08-29T07:57:21.220Z,19.34
2022-08-29T07:59:49.433Z,19.44
2022-08-29T08:02:17.538Z,19.41
2022-08-29T08:04:45.231Z,19.41
2022-08-29T08:07:14.035Z,19.33
2022-08-29T08:09:42.567Z,19.32
2022-08-29T08:12:11.616Z,19.07
2022-08-29T08:14:39.388Z,19.27
2022-08-29T08:17:07.144Z,19.49
2022-08-29T08:19:35.219Z,19.72
2022-08-29T08:22:02.910Z,19.68
2022-08-29T08:24:30.597Z,19.78
2022-08-29T08:26:58.460Z,19.80
2022-08-29T08:29:27.502Z,19.71
2022-08-29T08:31:59.839Z,19.83
2022-08-29T08:34:29.358Z,19.99
2022-08-29T08:36:57.623Z,20.13
2022-08-29T08:39:25.280Z,20.10
2022-08-29T08:41:57.300Z,20.11
2022-08-29T08:44:59.597Z,20.33
2022-08-29T08:47:31.323Z,20.31
2022-08-29T08:50:03.137Z,20.52
2022-08-29T08:52:38.395Z,20.71
2022-08-29T08:55:10.912Z,20.77
2022-08-29T08:57:41.509Z,20.86
2022-08-29T09:00:13.037Z,20.75
2022-08-29T09:02:49.211Z,20.85
2022-08-29T09:05:29.721Z,20.55
2022-08-29T09:08:01.788Z,20.93
2022-08-29T09:10:38.781Z,20.89
2022-08-29T09:13:15.150Z,20.66
2022-08-29T09:15:46.208Z,20.79
2022-08-29T09:18:24.629Z,21.37
2022-08-29T09:20:52.338Z,21.21
2022-08-29T09:23:23.324Z,21.00
2022-08-29T09:25:51.941Z,21.53
2022-08-29T09:28:19.655Z,21.68
2022-08-29T09:31:18.022Z,21.55
2022-08-29T09:33:49.898Z,21.97
2022-08-29T09:36:36.637Z,22.23
2022-08-29T09:39:22.434Z,22.40
2022-08-29T09:41:52.241Z,22.52
2022-08-29T09:44:23.086Z,22.60
2022-08-29T09:47:08.688Z,22.26
2022-08-29T09:49:37.340Z,21.86
2022-08-29T09:52:14.478Z,22.13
2022-08-29T09:54:42.991Z,22.43
2022-08-29T09:57:14.794Z,22.48
2022-08-29T09:59:45.294Z,22.39
2022-08-29T10:02:20.589Z,22.40
2022-08-29T10:04:50.759Z,22.56
2022-08-29T10:07:21.694Z,21.91
2022-08-29T10:10:00.259Z,22.13
2022-08-29T10:12:34.374Z,22.30
2022-08-29T10:15:04.819Z,22.51
2022-08-29T10:17:56.663Z,22.81
2022-08-29T10:20:28.407Z,22.48
2022-08-29T10:23:00.998Z,22.46
2022-08-29T10:25:36.645Z,22.70
2022-08-29T10:28:07.633Z,22.67
2022-08-29T10:30:41.285Z,22.69
2022-08-29T10:33:20.640Z,22.75
2022-08-29T10:35:54.872Z,23.00
2022-08-29T10:38:34.284Z,22.57
2022-08-29T10:41:04.849Z,23.03
2022-08-29T10:43:38.995Z,23.23
2022-08-29T10:46:32.841Z,23.31
2022-08-29T10:49:04.886Z,23.63
2022-08-29T10:51:37.215Z,24.05
2022-08-29T10:54:09.955Z,23.91
2022-08-29T10:56:40.563Z,24.08
2022-08-29T10:59:13.408Z,24.11
2022-08-29T11:01:44.639Z,24.01
2022-08-29T11:04:19.016Z,24.04
2022-08-29T11:06:51.639Z,23.96
2022-08-29T11:09:23.006Z,24.26
2022-08-29T11:12:04.946Z,24.45
2022-08-29T11:14:36.591Z,24.48
2022-08-29T11:17:05.471Z,24.39
2022-08-29T11:19:42.467Z,24.62
2022-08-29T11:22:15.321Z,24.72
2022-08-29T11:24:47.092Z,24.89
2022-08-29T11:27:23.150Z,24.71
2022-08-29T11:29:57.832Z,25.05
2022-08-29T11:32:31.151Z,25.04
2022-08-29T11:35:12.568Z,25.29
2022-08-29T11:37:57.820Z,25.04
2022-08-29T11:43:30.512Z,24.92
2022-08-29T11:46:00.261Z,25.00
2022-08-29T11:48:34.599Z,25.49
2022-08-29T11:51:36.123Z,25.68
2022-08-29T11:54:49.652Z,25.64
2022-08-29T11:57:46.913Z,25.21
2022-08-29T12:00:27.393Z,25.21
2022-08-29T12:02:55.146Z,25.33
2022-08-29T12:05:52.264Z,25.62
2022-08-29T12:08:37.312Z,25.44
2022-08-29T12:11:06.541Z,25.75
2022-08-29T12:14:04.783Z,25.69
2022-08-29T12:16:48.751Z,25.62
2022-08-29T12:19:48.086Z,25.61
2022-08-29T12:22:55.183Z,25.77
2022-08-29T12:25:48.053Z,25.60
2022-08-29T12:28:39.085Z,25.78
2022-08-29T12:31:19.682Z,26.02
2022-08-29T12:34:03.677Z,25.89
2022-08-29T12:36:40.884Z,25.87
2022-08-29T12:39:39.934Z,26.10
2022-08-29T12:42:20.646Z,26.26
2022-08-29T12:44:58.749Z,26.34
2022-08-29T12:47:28.493Z,26.17
2022-08-29T12:49:58.365Z,26.55
2022-08-29T12:52:32.088Z,26.48
2022-08-29T12:55:03.065Z,26.51
2022-08-29T12:57:36.811Z,26.38
2022-08-29T13:00:11.503Z,26.26
2022-08-29T13:02:39.623Z,26.65
2022-08-29T13:05:26.942Z,26.39
2022-08-29T13:07:58.848Z,26.18
2022-08-29T13:10:27.711Z,25.95
2022-08-29T13:13:07.897Z,26.45
2022-08-29T13:15:35.951Z,26.38
2022-08-29T13:18:03.828Z,26.51
2022-08-29T13:20:46.960Z,26.67
2022-08-29T13:23:20.732Z,26.57
2022-08-29T13:25:51.554Z,26.72
2022-08-29T13:28:25.435Z,26.87
2022-08-29T13:31:22.349Z,27.14
2022-08-29T13:34:13.640Z,27.26
2022-08-29T13:36:45.504Z,27.31
2022-08-29T13:39:26.551Z,27.14
2022-08-29T13:42:10.096Z,27.30
2022-08-29T13:44:52.704Z,27.26
2022-08-29T13:47:22.629Z,27.26
2022-08-29T13:49:51.029Z,27.14
2022-08-29T13:52:19.362Z,27.34
2022-08-29T13:54:46.990Z,27.34
2022-08-29T13:57:16.845Z,27.34
2022-08-29T13:59:46.029Z,27.15
2022-08-29T14:02:14.770Z,27.22
2022-08-29T14:04:44.363Z,27.32
2022-08-29T14:07:16.720Z,27.38
2022-08-29T14:09:46.078Z,27.42
2022-08-29T14:12:14.357Z,27.13
2022-08-29T14:14:42.505Z,27.18
2022-08-29T14:17:14.290Z,27.30
2022-08-29T14:19:46.766Z,27.46
2022-08-29T14:22:14.941Z,27.45
2022-08-29T14:24:43.319Z,27.13
2022-08-29T14:27:11.292Z,27.05
2022-08-29T14:29:40.706Z,26.88
2022-08-29T14:32:08.383Z,27.14
2022-08-29T14:34:39.128Z,27.14
2022-08-29T14:37:08.029Z,26.96
2022-08-29T14:39:36.157Z,27.04
2022-08-29T14:42:04.777Z,26.91
2022-08-29T14:44:33.306Z,26.94
2022-08-29T14:47:01.894Z,27.27
2022-08-29T14:49:30.535Z,27.31
2022-08-29T14:52:00.662Z,26.86
2022-08-29T14:54:29.114Z,26.95
2022-08-29T14:56:57.590Z,26.94
2022-08-29T14:59:30.954Z,27.16
2022-08-29T15:01:58.955Z,27.04
2022-08-29T15:04:35.095Z,27.18
2022-08-29T15:07:08.510Z,27.11
2022-08-29T15:09:37.031Z,27.13
2022-08-29T15:12:05.494Z,26.91
2022-08-29T15:14:34.422Z,27.04
2022-08-29T15:17:03.009Z,26.81
2022-08-29T15:22:22.249Z,26.98
2022-08-29T15:24:51.132Z,27.09
2022-08-29T15:27:21.583Z,27.08
2022-08-29T15:29:51.599Z,26.86
2022-08-29T15:32:20.485Z,27.04
2022-08-29T15:34:48.311Z,27.23
2022-08-29T15:37:16.332Z,26.85
2022-08-29T15:39:45.479Z,26.92
2022-08-29T15:42:17.337Z,27.03
2022-08-29T15:44:45.456Z,27.17
2022-08-29T15:47:13.232Z,26.80
2022-08-29T15:49:42.112Z,26.90
2022-08-29T15:52:11.995Z,26.94
2022-08-29T15:54:41.628Z,26.94
2022-08-29T15:57:10.806Z,26.93
2022-08-29T15:59:57.259Z,26.90
2022-08-29T16:02:26.415Z,26.89
2022-08-29T16:04:57.177Z,27.03
2022-08-29T16:07:29.159Z,26.71
2022-08-29T16:12:26.075Z,26.98
2022-08-29T16:15:02.360Z,26.72
2022-08-29T16:17:31.631Z,26.62
2022-08-29T16:20:06.542Z,26.52
2022-08-29T16:22:35.169Z,26.45
2022-08-29T16:25:02.918Z,26.42
2022-08-29T16:27:32.030Z,26.39
2022-08-29T16:30:00.026Z,26.54
2022-08-29T16:32:28.026Z,26.43
2022-08-29T16:34:58.554Z,26.42
2022-08-29T16:37:26.739Z,26.28
2022-08-29T16:39:54.877Z,26.25
2022-08-29T16:42:25.570Z,26.17
2022-08-29T16:44:56.754Z,26.29
2022-08-29T16:47:24.483Z,26.23
2022-08-29T16:49:55.829Z,26.19
2022-08-29T16:52:23.759Z,26.26
2022-08-29T16:54:53.627Z,26.13
2022-08-29T16:57:21.643Z,25.93
2022-08-29T16:59:49.647Z,26.18
2022-08-29T17:02:19.092Z,25.98
2022-08-29T17:04:48.852Z,25.83
2022-08-29T17:07:16.875Z,25.70
2022-08-29T17:09:43.647Z,25.56
2022-08-29T17:12:10.258Z,25.63
2022-08-29T17:14:36.898Z,25.48
2022-08-29T17:17:04.852Z,25.41
2022-08-29T17:19:34.156Z,25.36
2022-08-29T17:22:02.068Z,25.32
2022-08-29T17:24:29.937Z,25.20
2022-08-29T17:26:57.983Z,25.15
2022-08-29T17:29:25.944Z,25.28
2022-08-29T17:31:53.886Z,25.15
2022-08-29T17:34:21.765Z,25.13
2022-08-29T17:36:50.776Z,24.97
2022-08-29T17:39:20.031Z,25.01
2022-08-29T17:41:50.527Z,24.85
2022-08-29T17:44:18.949Z,24.71
2022-08-29T17:46:46.594Z,24.65
2022-08-29T17:49:14.273Z,24.47
2022-08-29T17:51:42.128Z,24.39
2022-08-29T17:54:12.549Z,24.28
2022-08-29T17:56:45.044Z,24.35
2022-08-29T17:59:13.253Z,24.13
2022-08-29T18:01:41.190Z,23.99
2022-08-29T18:04:09.339Z,24.03
2022-08-29T18:06:37.125Z,23.80
2022-08-29T18:09:04.887Z,23.61
2022-08-29T18:11:34.262Z,23.56
2022-08-29T18:14:02.051Z,23.51
2022-08-29T18:16:29.911Z,23.53
2022-08-29T18:18:57.637Z,23.48
2022-08-29T18:21:25.936Z,23.38
2022-08-29T18:23:53.819Z,23.21
2022-08-29T18:26:21.679Z,23.19
2022-08-29T18:28:50.770Z,23.08
2022-08-29T18:31:19.626Z,23.08
2022-08-29T18:34:00.201Z,22.98
2022-08-29T18:36:29.281Z,22.96
2022-08-29T18:38:56.970Z,23.02
2022-08-29T18:41:24.717Z,22.77
2022-08-29T18:43:53.797Z,22.85
2022-08-29T18:46:22.086Z,22.92
2022-08-29T18:48:51.801Z,22.57
2022-08-29T18:51:20.192Z,22.47
2022-08-29T18:53:48.409Z,22.68
2022-08-29T18:56:16.420Z,22.45
2022-08-29T18:58:45.222Z,22.39
2022-08-29T19:01:15.340Z,22.24
2022-08-29T19:06:41.276Z,22.28
2022-08-29T19:11:59.886Z,21.93
2022-08-29T19:25:25.854Z,21.65
2022-08-29T19:30:20.884Z,21.59
2022-08-29T19:32:48.939Z,21.56
2022-08-29T19:43:13.874Z,21.31
2022-08-29T19:51:07.879Z,21.24
2022-08-29T19:58:53.859Z,21.17
2022-08-29T20:01:23.045Z,21.08
2022-08-29T20:06:17.990Z,21.13
2022-08-29T20:11:43.623Z,20.88
2022-08-29T20:14:11.735Z,20.92
2022-08-29T20:16:43.873Z,20.91
2022-08-29T20:19:12.229Z,20.93
2022-08-29T20:21:40.948Z,20.84
2022-08-29T20:24:08.780Z,20.68
2022-08-29T20:26:37.536Z,20.74
2022-08-29T20:29:07.407Z,20.76
2022-08-29T20:31:35.741Z,20.74
2022-08-29T20:34:05.133Z,20.68
2022-08-29T20:36:50.582Z,20.65
2022-08-29T20:39:19.713Z,20.45
2022-08-29T20:41:51.833Z,20.48
2022-08-29T20:44:20.480Z,20.40
2022-08-29T20:46:48.668Z,20.45
2022-08-29T20:49:24.885Z,20.44
2022-08-29T20:51:52.872Z,20.50
2022-08-29T20:54:23.317Z,20.45
2022-08-29T20:56:51.455Z,20.31
2022-08-29T20:59:19.215Z,20.28
2022-08-29T21:01:47.854Z,20.20
2022-08-29T21:04:35.071Z,20.21
2022-08-29T21:07:05.748Z,20.16
2022-08-29T21:09:33.852Z,20.15
2022-08-29T21:12:01.656Z,20.08
2022-08-29T21:14:29.582Z,20.03
2022-08-29T21:16:58.297Z,20.08
2022-08-29T21:19:29.985Z,19.99
2022-08-29T21:21:58.689Z,19.89
2022-08-29T21:24:27.277Z,19.89
2022-08-29T21:26:55.035Z,19.72
2022-08-29T21:29:30.822Z,19.66
2022-08-29T21:31:58.540Z,19.54
2022-08-29T21:34:27.800Z,19.53
2022-08-29T21:36:55.557Z,19.59
2022-08-29T21:39:28.408Z,19.52
2022-08-29T21:41:57.732Z,19.61
2022-08-29T21:44:27.929Z,19.73
2022-08-29T21:46:55.660Z,19.59
2022-08-29T21:49:23.452Z,19.56
2022-08-29T21:51:52.615Z,19.46
2022-08-29T21:54:20.373Z,19.47
2022-08-29T21:56:49.299Z,19.46
2022-08-29T21:59:17.719Z,19.50
2022-08-29T22:01:46.844Z,19.55
2022-08-29T22:04:28.202Z,19.63
2022-08-29T22:06:59.616Z,19.55
2022-08-29T22:09:28.200Z,19.50
2022-08-29T22:11:56.111Z,19.35
2022-08-29T22:14:44.766Z,19.33
2022-08-29T22:17:11.635Z,19.28
2022-08-29T22:19:39.872Z,19.26
2022-08-29T22:22:10.409Z,19.19
2022-08-29T22:24:41.440Z,19.17
2022-08-29T22:27:09.584Z,19.26
2022-08-29T22:29:37.545Z,19.24
2022-08-29T22:32:05.707Z,19.12
2022-08-29T22:34:33.379Z,19.13
2022-08-29T22:37:01.614Z,19.06
2022-08-29T22:39:30.634Z,18.97
2022-08-29T22:41:58.328Z,18.84
2022-08-29T22:47:13.963Z,18.88
2022-08-29T22:49:41.815Z,18.91
2022-08-29T22:52:11.528Z,18.78
2022-08-29T22:54:40.888Z,18.80
2022-08-29T22:57:10.112Z,18.88
2022-08-29T22:59:39.233Z,18.80
2022-08-29T23:02:07.476Z,18.80
2022-08-29T23:04:36.537Z,18.62
2022-08-29T23:07:05.135Z,18.64
2022-08-29T23:09:35.138Z,18.65
2022-08-29T23:12:05.854Z,18.66
2022-08-29T23:14:35.589Z,18.66
2022-08-29T23:17:03.321Z,18.71
2022-08-29T23:19:31.097Z,18.49
2022-08-29T23:21:58.813Z,18.49
2022-08-29T23:24:29.938Z,18.55
2022-08-29T23:26:57.699Z,18.49
2022-08-29T23:29:27.365Z,18.47
2022-08-29T23:31:55.209Z,18.35
2022-08-29T23:34:24.022Z,18.35
2022-08-29T23:36:51.762Z,18.40
2022-08-29T23:39:19.539Z,18.36
2022-08-29T23:41:47.385Z,18.29
2022-08-29T23:44:15.570Z,18.31
2022-08-29T23:46:44.748Z,18.28
2022-08-29T23:49:12.716Z,18.28
2022-08-29T23:51:40.500Z,18.21
2022-08-29T23:54:08.186Z,18.15
2022-08-29T23:56:35.871Z,18.05
2022-08-29T23:59:03.617Z,18.07
